createdAt,value
2022-11-01T00:02:54.267Z,12.10
2022-11-01T00:08:00.262Z,12.00
2022-11-01T00:13:06.330Z,12.00
2022-11-01T00:18:11.850Z,12.00
2022-11-01T00:23:21.020Z,12.00
2022-11-01T00:28:28.282Z,12.00
2022-11-01T00:33:33.944Z,12.00
2022-11-01T00:38:41.283Z,12.00
2022-11-01T00:43:47.066Z,12.00
2022-11-01T00:48:56.497Z,12.00
2022-11-01T00:54:02.127Z,12.00
2022-11-01T00:59:07.825Z,12.00
2022-11-01T01:04:15.057Z,12.00
2022-11-01T01:09:21.467Z,12.00
2022-11-01T01:14:32.255Z,12.00
2022-11-01T01:19:34.935Z,12.00
2022-11-01T01:24:41.921Z,12.00
2022-11-01T01:29:47.407Z,12.00
2022-11-01T01:34:53.223Z,11.90
2022-11-01T01:39:59.698Z,11.90
2022-11-01T01:45:33.867Z,11.90
2022-11-01T01:50:43.553Z,11.90
2022-11-01T01:56:06.749Z,11.90
2022-11-01T02:01:13.137Z,11.80
2022-11-01T02:06:21.645Z,11.80
2022-11-01T02:11:27.719Z,11.80
2022-11-01T02:16:38.594Z,11.80
2022-11-01T02:21:46.968Z,11.80
2022-11-01T02:27:09.804Z,11.70
2022-11-01T02:32:45.078Z,11.80
2022-11-01T02:37:56.369Z,11.80
2022-11-01T02:43:05.015Z,11.80
2022-11-01T02:48:11.062Z,11.80
2022-11-01T02:53:16.500Z,11.80
2022-11-01T02:58:27.631Z,11.70
2022-11-01T03:03:35.301Z,11.70
2022-11-01T03:08:43.763Z,11.70
2022-11-01T03:14:04.274Z,11.60
2022-11-01T03:19:12.728Z,11.70
2022-11-01T03:24:29.976Z,11.60
2022-11-01T03:29:38.066Z,11.70
2022-11-01T03:34:45.893Z,11.70
2022-11-01T03:39:53.996Z,11.60
2022-11-01T03:45:05.969Z,11.60
2022-11-01T03:50:20.466Z,11.60
2022-11-01T03:55:26.915Z,11.60
2022-11-01T04:00:45.245Z,11.60
2022-11-01T04:05:50.720Z,11.70
2022-11-01T04:10:56.158Z,11.60
2022-11-01T04:16:20.280Z,11.70
2022-11-01T04:21:27.554Z,11.70
2022-11-01T04:26:33.053Z,11.60
2022-11-01T04:31:38.676Z,11.60
2022-11-01T04:36:44.289Z,11.60
2022-11-01T04:41:49.810Z,11.60
2022-11-01T04:46:55.295Z,11.60
2022-11-01T04:52:01.637Z,11.60
2022-11-01T04:57:10.374Z,11.60
2022-11-01T05:02:20.220Z,11.60
2022-11-01T05:07:31.334Z,11.50
2022-11-01T05:18:47.160Z,11.50
2022-11-01T05:23:58.559Z,11.50
2022-11-01T05:29:08.733Z,11.50
2022-11-01T05:34:12.659Z,11.50
2022-11-01T05:39:21.090Z,11.40
2022-11-01T05:44:26.499Z,11.40
2022-11-01T05:49:31.885Z,11.40
2022-11-01T05:54:37.093Z,11.40
2022-11-01T05:59:43.795Z,11.40
2022-11-01T06:04:48.985Z,11.40
2022-11-01T06:09:54.347Z,11.20
2022-11-01T06:14:59.842Z,11.30
2022-11-01T06:20:06.249Z,11.20
2022-11-01T06:25:13.222Z,11.10
2022-11-01T06:30:23.878Z,11.10
2022-11-01T06:35:32.340Z,11.10
2022-11-01T06:40:42.149Z,11.10
2022-11-01T06:45:51.875Z,11.10
2022-11-01T06:51:00.639Z,11.20
2022-11-01T06:56:06.854Z,11.20
2022-11-01T07:01:13.760Z,11.20
2022-11-01T07:06:20.388Z,11.20
2022-11-01T07:11:31.019Z,11.20
2022-11-01T07:16:33.886Z,11.20
2022-11-01T07:21:39.440Z,11.20
2022-11-01T07:26:44.914Z,11.10
2022-11-01T07:31:50.493Z,11.10
2022-11-01T07:36:57.913Z,11.10
2022-11-01T07:47:55.674Z,11.10
2022-11-01T07:53:26.684Z,11.10
2022-11-01T07:58:35.432Z,11.10
2022-11-01T08:03:49.274Z,11.00
2022-11-01T08:09:05.305Z,11.00
2022-11-01T08:14:12.156Z,11.10
2022-11-01T08:19:18.188Z,11.10
2022-11-01T08:24:23.620Z,11.10
2022-11-01T08:29:29.005Z,11.10
2022-11-01T08:34:34.506Z,11.20
2022-11-01T08:39:48.406Z,11.10
2022-11-01T08:44:55.188Z,11.20
2022-11-01T08:50:00.963Z,11.20
2022-11-01T08:55:07.071Z,11.30
2022-11-01T09:00:16.383Z,11.40
2022-11-01T09:05:22.995Z,11.60
2022-11-01T09:10:30.565Z,11.70
2022-11-01T09:15:42.965Z,11.70
2022-11-01T09:21:08.432Z,11.80
2022-11-01T09:33:23.824Z,11.90
2022-11-01T09:38:31.482Z,12.00
2022-11-01T09:43:45.382Z,12.10
2022-11-01T09:49:02.325Z,12.20
2022-11-01T09:55:13.502Z,12.30
2022-11-01T10:00:46.752Z,12.40
2022-11-01T10:06:05.761Z,12.40
2022-11-01T10:17:15.355Z,12.40
2022-11-01T10:22:37.090Z,12.50
2022-11-01T10:28:05.949Z,12.60
2022-11-01T10:33:46.677Z,12.60
2022-11-01T10:40:01.426Z,12.60
2022-11-01T10:44:56.801Z,12.60
2022-11-01T11:08:13.760Z,12.80
2022-11-01T11:13:31.635Z,12.90
2022-11-01T11:24:46.452Z,12.90
2022-11-01T11:30:03.873Z,13.00
2022-11-01T11:40:59.196Z,13.00
2022-11-01T11:46:12.856Z,12.90
2022-11-01T11:57:15.610Z,12.80
2022-11-01T12:02:24.620Z,12.80
2022-11-01T12:07:38.928Z,12.80
2022-11-01T12:12:49.883Z,12.70
2022-11-01T12:18:03.266Z,12.70
2022-11-01T12:23:24.858Z,12.80
2022-11-01T12:28:42.771Z,12.70
2022-11-01T12:33:53.937Z,12.80
2022-11-01T12:44:45.060Z,12.80
2022-11-01T12:50:45.803Z,12.80
2022-11-01T13:02:05.391Z,12.90
2022-11-01T13:07:27.971Z,12.80
2022-11-01T13:12:57.276Z,12.90
2022-11-01T13:24:04.040Z,12.90
2022-11-01T13:29:31.686Z,12.90
2022-11-01T13:34:56.764Z,12.80
2022-11-01T13:40:05.261Z,12.90
2022-11-01T13:45:34.971Z,12.90
2022-11-01T13:57:13.501Z,12.90
2022-11-01T14:09:26.389Z,13.00
2022-11-01T14:15:31.119Z,12.90
2022-11-01T14:27:12.689Z,12.80
2022-11-01T14:32:45.980Z,12.80
2022-11-01T14:38:37.716Z,12.80
2022-11-01T14:43:56.946Z,12.80
2022-11-01T14:49:38.004Z,12.80
2022-11-01T14:55:17.865Z,12.80
2022-11-01T15:00:48.029Z,12.80
2022-11-01T15:11:42.503Z,12.80
2022-11-01T15:17:24.776Z,12.80
2022-11-01T15:28:12.611Z,12.80
2022-11-01T15:33:39.931Z,12.70
2022-11-01T16:12:38.578Z,12.70
2022-11-01T16:17:54.410Z,12.70
2022-11-01T16:23:02.003Z,12.70
2022-11-01T16:28:13.257Z,12.70
2022-11-01T16:33:35.161Z,12.70
2022-11-01T16:38:43.691Z,12.70
2022-11-01T16:43:56.957Z,12.70
2022-11-01T16:49:05.805Z,12.70
2022-11-01T16:54:12.838Z,12.70
2022-11-01T16:59:38.565Z,12.70
2022-11-01T17:04:45.253Z,12.70
2022-11-01T17:09:50.879Z,12.70
2022-11-01T17:15:11.390Z,12.70
2022-11-01T17:20:25.878Z,12.70
2022-11-01T17:26:01.680Z,12.80
2022-11-01T17:32:05.858Z,12.80
2022-11-01T17:48:53.807Z,12.80
2022-11-01T17:54:27.874Z,12.80
2022-11-01T18:11:43.505Z,12.80
2022-11-01T18:17:07.681Z,12.80
2022-11-01T18:40:26.092Z,12.70
2022-11-01T18:57:27.009Z,12.70
2022-11-01T19:02:59.480Z,12.60
2022-11-01T19:08:29.696Z,12.60
2022-11-01T19:13:49.077Z,12.60
2022-11-01T19:19:02.935Z,12.50
2022-11-01T19:41:46.661Z,12.50
2022-11-01T19:47:25.299Z,12.50
2022-11-01T19:52:46.847Z,12.50
